createdAt,value
2019-05-30T00:00:20.591Z,60.37
2019-05-30T00:02:53.924Z,60.20
2019-05-30T00:05:27.176Z,60.45
2019-05-30T00:07:58.926Z,60.66
2019-05-30T00:10:31.194Z,60.76
2019-05-30T00:13:02.963Z,61.19
2019-05-30T00:15:35.121Z,61.49
2019-05-30T00:18:07.088Z,61.52
2019-05-30T00:20:38.988Z,62.00
2019-05-30T00:23:11.231Z,61.99
2019-05-30T00:25:44.814Z,62.64
2019-05-30T00:28:16.756Z,63.28
2019-05-30T00:30:48.744Z,63.56
2019-05-30T00:33:20.613Z,63.61
2019-05-30T00:35:52.601Z,64.02
2019-05-30T00:38:24.450Z,63.92
2019-05-30T00:40:57.817Z,63.66
2019-05-30T00:43:29.731Z,63.93
2019-05-30T00:46:04.213Z,64.03
2019-05-30T00:48:36.240Z,64.64
2019-05-30T00:51:08.653Z,65.01
2019-05-30T00:53:40.536Z,65.26
2019-05-30T00:56:13.204Z,65.34
2019-05-30T00:58:44.976Z,65.47
2019-05-30T01:01:17.250Z,65.59
2019-05-30T01:03:48.982Z,65.90
2019-05-30T01:06:21.166Z,66.33
2019-05-30T01:08:53.023Z,66.42
2019-05-30T01:11:25.498Z,66.23
2019-05-30T01:13:57.262Z,66.28
2019-05-30T01:16:29.524Z,66.08
2019-05-30T01:19:01.342Z,66.36
2019-05-30T01:21:33.343Z,66.67
2019-05-30T01:24:05.671Z,66.80
2019-05-30T01:26:38.198Z,67.08
2019-05-30T01:29:10.228Z,67.37
2019-05-30T01:31:42.530Z,67.81
2019-05-30T01:34:14.318Z,67.91
2019-05-30T01:36:46.351Z,68.02
2019-05-30T01:39:18.138Z,68.33
2019-05-30T01:41:50.481Z,68.65
2019-05-30T01:44:22.282Z,68.97
2019-05-30T01:46:54.314Z,69.03
2019-05-30T01:49:26.152Z,69.22
2019-05-30T01:51:58.375Z,69.14
2019-05-30T01:54:30.482Z,69.22
2019-05-30T01:57:02.661Z,69.33
2019-05-30T01:59:34.449Z,69.60
2019-05-30T02:02:07.257Z,69.63
2019-05-30T02:04:39.194Z,69.71
2019-05-30T02:07:11.046Z,69.74
2019-05-30T02:09:42.789Z,69.79
2019-05-30T02:12:15.192Z,70.11
2019-05-30T02:14:47.026Z,70.34
2019-05-30T02:17:19.123Z,70.47
2019-05-30T02:19:50.919Z,70.64
2019-05-30T02:22:23.031Z,71.03
2019-05-30T02:24:54.844Z,70.98
2019-05-30T02:27:27.268Z,70.96
2019-05-30T02:30:00.065Z,71.21
2019-05-30T02:32:32.248Z,71.24
2019-05-30T02:35:05.335Z,71.03
2019-05-30T02:37:37.986Z,71.02
2019-05-30T02:40:14.823Z,71.37
2019-05-30T02:42:44.787Z,71.40
2019-05-30T02:45:18.333Z,71.35
2019-05-30T02:47:50.344Z,71.46
2019-05-30T02:50:22.420Z,71.49
2019-05-30T02:52:54.485Z,71.47
2019-05-30T02:55:26.220Z,71.52
2019-05-30T02:57:58.536Z,71.58
2019-05-30T03:00:38.022Z,71.62
2019-05-30T03:03:13.931Z,71.52
2019-05-30T03:05:43.490Z,71.59
2019-05-30T03:08:15.454Z,71.80
2019-05-30T03:10:47.750Z,71.75
2019-05-30T03:13:20.943Z,71.70
2019-05-30T03:15:53.418Z,71.68
2019-05-30T03:18:25.707Z,71.68
2019-05-30T03:20:57.443Z,71.63
2019-05-30T03:23:29.668Z,71.61
2019-05-30T03:26:02.581Z,71.59
2019-05-30T03:28:35.067Z,71.48
2019-05-30T03:31:21.219Z,71.43
2019-05-30T03:33:43.429Z,71.41
2019-05-30T03:36:27.663Z,71.57
2019-05-30T03:38:48.970Z,71.52
2019-05-30T03:41:20.736Z,71.53
2019-05-30T03:43:52.897Z,71.51
2019-05-30T03:46:30.349Z,71.30
2019-05-30T03:49:06.741Z,71.26
2019-05-30T03:51:42.662Z,71.19
2019-05-30T03:54:15.989Z,70.88
2019-05-30T03:56:55.600Z,70.80
2019-05-30T03:59:36.703Z,70.81
2019-05-30T04:02:31.222Z,70.72
2019-05-30T04:05:11.252Z,70.33
2019-05-30T04:07:49.373Z,70.14
2019-05-30T04:10:25.417Z,69.76
2019-05-30T04:13:42.852Z,69.71
2019-05-30T04:16:15.747Z,69.46
2019-05-30T04:18:47.907Z,69.36
2019-05-30T04:21:21.653Z,68.85
2019-05-30T04:23:53.191Z,68.80
2019-05-30T04:26:25.423Z,68.36
2019-05-30T04:28:57.203Z,68.00
2019-05-30T04:31:29.346Z,67.92
2019-05-30T04:34:01.139Z,67.85
2019-05-30T04:36:33.009Z,67.91
2019-05-30T04:39:06.679Z,67.44
2019-05-30T04:41:38.598Z,66.95
2019-05-30T04:44:11.994Z,66.65
2019-05-30T04:46:44.909Z,66.41
2019-05-30T04:49:17.345Z,66.37
2019-05-30T04:51:51.250Z,66.18
2019-05-30T04:54:23.995Z,65.97
2019-05-30T04:56:55.808Z,65.53
2019-05-30T04:59:27.666Z,65.26
2019-05-30T05:01:59.785Z,64.94
2019-05-30T05:04:31.544Z,64.52
2019-05-30T05:07:03.771Z,64.19
2019-05-30T05:09:35.526Z,63.96
2019-05-30T05:12:07.684Z,63.50
2019-05-30T05:14:39.423Z,63.22
2019-05-30T05:17:12.717Z,62.81
2019-05-30T05:19:44.532Z,62.48
2019-05-30T05:22:17.021Z,62.24
2019-05-30T05:24:49.034Z,62.03
2019-05-30T05:27:21.753Z,61.55
2019-05-30T05:29:53.790Z,60.97
2019-05-30T05:32:25.585Z,59.74
2019-05-30T05:34:57.383Z,59.82
2019-05-30T05:37:29.259Z,59.71
2019-05-30T05:40:01.030Z,58.72
2019-05-30T05:42:33.305Z,58.23
2019-05-30T05:45:05.926Z,58.15
2019-05-30T05:47:37.806Z,57.37
2019-05-30T05:50:10.681Z,56.59
2019-05-30T05:52:42.653Z,56.52
2019-05-30T05:55:14.504Z,56.52
2019-05-30T05:57:46.345Z,56.35
2019-05-30T06:00:19.051Z,55.98
2019-05-30T06:02:52.444Z,55.43
2019-05-30T06:05:24.374Z,55.09
2019-05-30T06:07:56.337Z,54.05
2019-05-30T06:10:28.114Z,53.98
2019-05-30T06:13:00.101Z,53.45
2019-05-30T06:15:31.885Z,52.94
2019-05-30T06:18:04.264Z,52.68
2019-05-30T06:20:36.131Z,52.01
2019-05-30T06:23:07.983Z,51.61
2019-05-30T06:25:39.790Z,51.02
2019-05-30T06:28:11.916Z,50.97
2019-05-30T06:30:43.967Z,50.66
2019-05-30T06:33:16.046Z,50.61
2019-05-30T06:35:47.800Z,50.32
2019-05-30T06:38:20.989Z,50.45
2019-05-30T06:40:53.116Z,50.30
2019-05-30T06:43:26.127Z,50.11
2019-05-30T06:45:59.427Z,50.47
2019-05-30T06:48:31.618Z,50.67
2019-05-30T06:51:03.414Z,49.97
2019-05-30T06:53:35.261Z,49.13
2019-05-30T06:56:07.376Z,48.98
2019-05-30T06:58:48.470Z,48.88
2019-05-30T07:01:12.699Z,48.43
2019-05-30T07:03:44.992Z,48.30
2019-05-30T07:06:17.636Z,47.42
2019-05-30T07:08:50.296Z,46.88
2019-05-30T07:11:22.685Z,46.38
2019-05-30T07:13:54.831Z,45.98
2019-05-30T07:16:27.356Z,46.31
2019-05-30T07:19:01.015Z,45.89
2019-05-30T07:21:33.899Z,45.90
2019-05-30T07:24:06.131Z,46.14
2019-05-30T07:26:38.539Z,45.96
2019-05-30T07:29:10.404Z,45.68
2019-05-30T07:31:42.216Z,45.24
2019-05-30T07:34:14.438Z,44.50
2019-05-30T07:36:46.234Z,44.73
2019-05-30T07:39:18.040Z,44.16
2019-05-30T07:42:05.292Z,44.28
2019-05-30T07:44:24.511Z,44.43
2019-05-30T07:46:56.371Z,42.55
2019-05-30T07:49:28.577Z,43.06
2019-05-30T07:52:00.447Z,42.64
2019-05-30T07:54:33.063Z,43.37
2019-05-30T07:57:05.097Z,42.69
2019-05-30T07:59:37.049Z,42.21
2019-05-30T08:02:09.292Z,41.99
2019-05-30T08:04:41.425Z,41.34
2019-05-30T08:07:13.226Z,41.33
2019-05-30T08:09:45.006Z,41.72
2019-05-30T08:12:16.744Z,41.53
2019-05-30T08:14:48.727Z,40.52
2019-05-30T08:17:20.479Z,40.96
2019-05-30T08:19:52.752Z,41.45
2019-05-30T08:22:24.552Z,41.15
2019-05-30T08:24:56.505Z,40.89
2019-05-30T08:27:28.250Z,40.02
2019-05-30T08:30:00.140Z,39.57
2019-05-30T08:32:32.479Z,39.80
2019-05-30T08:35:05.492Z,38.82
2019-05-30T08:37:37.413Z,38.78
2019-05-30T08:40:09.707Z,38.73
2019-05-30T08:42:41.467Z,38.09
2019-05-30T08:45:14.298Z,38.56
2019-05-30T08:47:46.107Z,38.67
2019-05-30T08:50:19.280Z,37.63
2019-05-30T08:52:51.090Z,37.12
2019-05-30T08:55:22.924Z,37.30
2019-05-30T08:57:54.886Z,37.76
2019-05-30T09:00:29.193Z,37.74
2019-05-30T09:03:00.976Z,37.15
2019-05-30T09:05:33.175Z,35.82
2019-05-30T09:08:04.936Z,35.63
2019-05-30T09:10:37.789Z,36.30
2019-05-30T09:13:10.583Z,36.93
2019-05-30T09:15:43.047Z,35.85
2019-05-30T09:18:15.015Z,34.11
2019-05-30T09:20:47.530Z,35.36
2019-05-30T09:23:19.286Z,34.81
2019-05-30T09:25:51.491Z,33.19
2019-05-30T09:28:23.266Z,34.36
2019-05-30T09:30:55.432Z,35.15
2019-05-30T09:33:27.232Z,35.29
2019-05-30T09:36:12.265Z,31.12
2019-05-30T09:38:32.887Z,32.14
2019-05-30T09:41:04.914Z,31.32
2019-05-30T09:43:36.847Z,31.56
2019-05-30T09:46:08.934Z,32.80
2019-05-30T09:48:42.049Z,33.45
2019-05-30T09:51:14.446Z,32.02
2019-05-30T09:53:46.193Z,32.75
2019-05-30T09:56:18.241Z,32.26
2019-05-30T09:58:50.104Z,30.96
2019-05-30T10:01:21.962Z,31.44
2019-05-30T10:03:53.724Z,30.18
2019-05-30T10:06:29.341Z,29.11
2019-05-30T10:08:59.401Z,28.75
2019-05-30T10:11:31.359Z,29.20
2019-05-30T10:14:03.172Z,30.02
2019-05-30T10:16:35.386Z,30.57
2019-05-30T10:19:08.290Z,30.96
2019-05-30T10:21:40.630Z,29.55
2019-05-30T10:24:12.403Z,28.89
2019-05-30T10:26:45.593Z,28.97
2019-05-30T10:29:17.776Z,29.52
2019-05-30T10:31:50.603Z,28.87
2019-05-30T10:34:22.552Z,29.03
2019-05-30T10:36:55.699Z,30.02
2019-05-30T10:39:27.521Z,30.12
2019-05-30T10:41:59.614Z,29.26
2019-05-30T10:44:31.497Z,28.01
2019-05-30T10:47:03.447Z,28.76
2019-05-30T10:49:35.465Z,27.77
2019-05-30T10:52:07.576Z,27.38
2019-05-30T10:54:39.391Z,27.69
2019-05-30T10:57:11.398Z,27.82
2019-05-30T10:59:43.271Z,26.96
2019-05-30T11:02:16.453Z,27.02
2019-05-30T11:04:48.929Z,27.13
2019-05-30T11:08:04.871Z,26.65
2019-05-30T11:10:43.845Z,27.29
2019-05-30T11:13:18.071Z,27.78
2019-05-30T11:15:51.496Z,27.08
2019-05-30T11:18:23.722Z,26.63
2019-05-30T11:20:56.304Z,26.49
2019-05-30T11:23:29.656Z,26.13
2019-05-30T11:26:01.458Z,25.75
2019-05-30T11:28:33.233Z,26.58
2019-05-30T11:31:05.361Z,25.86
2019-05-30T11:33:37.558Z,25.98
2019-05-30T11:36:09.346Z,26.03
2019-05-30T11:38:41.655Z,26.13
2019-05-30T11:41:13.411Z,25.16
2019-05-30T11:43:45.423Z,24.80
2019-05-30T11:46:17.170Z,25.44
2019-05-30T11:48:49.552Z,25.52
2019-05-30T11:51:21.420Z,26.41
2019-05-30T11:53:53.846Z,24.58
2019-05-30T11:56:25.643Z,24.32
2019-05-30T11:58:58.101Z,25.14
2019-05-30T12:01:30.054Z,24.81
2019-05-30T12:04:02.146Z,23.38
2019-05-30T12:06:33.916Z,23.23
2019-05-30T12:09:08.615Z,23.77
2019-05-30T12:11:40.469Z,23.54
2019-05-30T12:14:12.462Z,24.31
2019-05-30T12:16:44.284Z,23.17
2019-05-30T12:19:16.105Z,22.29
2019-05-30T12:21:47.903Z,23.81
2019-05-30T12:24:20.220Z,24.39
2019-05-30T12:26:52.010Z,24.11
2019-05-30T12:29:23.994Z,23.80
2019-05-30T12:31:58.403Z,22.95
2019-05-30T12:34:29.342Z,23.78
2019-05-30T12:37:01.096Z,23.70
2019-05-30T12:39:33.830Z,22.29
2019-05-30T12:42:05.776Z,22.32
2019-05-30T12:44:37.873Z,22.24
2019-05-30T12:47:09.712Z,20.76
2019-05-30T12:49:41.688Z,20.82
2019-05-30T12:52:13.476Z,20.87
2019-05-30T12:54:45.620Z,20.36
2019-05-30T12:57:17.376Z,19.44
2019-05-30T12:59:49.464Z,18.37
2019-05-30T13:02:21.254Z,16.83
2019-05-30T13:04:53.283Z,16.17
2019-05-30T13:07:25.074Z,15.85
2019-05-30T13:09:57.160Z,14.67
2019-05-30T13:12:28.981Z,13.76
2019-05-30T13:15:01.952Z,14.75
2019-05-30T13:17:33.931Z,14.93
2019-05-30T13:20:07.790Z,14.94
2019-05-30T13:22:40.251Z,14.61
2019-05-30T13:25:15.331Z,15.26
2019-05-30T13:27:47.100Z,15.28
2019-05-30T13:30:21.091Z,14.80
2019-05-30T13:32:52.885Z,15.73
2019-05-30T13:35:24.932Z,16.22
2019-05-30T13:37:57.156Z,16.78
2019-05-30T13:40:29.470Z,18.14
2019-05-30T13:43:01.930Z,19.42
2019-05-30T13:45:35.340Z,21.08
2019-05-30T13:48:08.530Z,20.96
2019-05-30T13:50:40.808Z,20.31
2019-05-30T13:53:12.612Z,19.72
2019-05-30T13:55:45.251Z,19.65
2019-05-30T13:58:17.117Z,18.84
2019-05-30T14:00:48.979Z,16.40
2019-05-30T14:03:20.790Z,14.76
2019-05-30T14:05:52.795Z,14.04
2019-05-30T14:08:24.634Z,11.73
2019-05-30T14:10:56.764Z,9.91
2019-05-30T14:13:29.726Z,8.52
2019-05-30T14:16:02.746Z,7.96
2019-05-30T14:18:34.761Z,8.27
2019-05-30T14:21:07.514Z,8.73
2019-05-30T14:23:39.512Z,8.46
2019-05-30T14:26:12.395Z,8.29
2019-05-30T14:28:44.905Z,8.53
2019-05-30T14:31:16.838Z,8.38
2019-05-30T14:33:48.689Z,8.88
2019-05-30T14:36:20.516Z,9.31
2019-05-30T14:38:58.523Z,9.67
2019-05-30T14:41:26.491Z,10.53
2019-05-30T14:43:58.358Z,10.74
2019-05-30T14:46:30.461Z,10.80
2019-05-30T14:49:02.254Z,11.05
2019-05-30T14:51:35.383Z,10.16
2019-05-30T14:54:07.372Z,9.75
2019-05-30T14:56:39.645Z,8.83
2019-05-30T14:59:11.434Z,9.04
2019-05-30T15:01:43.285Z,9.81
2019-05-30T15:04:15.144Z,11.19
2019-05-30T15:06:46.995Z,12.54
2019-05-30T15:09:25.923Z,12.61
2019-05-30T15:11:52.878Z,12.46
2019-05-30T15:14:24.702Z,12.98
2019-05-30T15:16:56.624Z,12.96
2019-05-30T15:19:28.401Z,12.82
2019-05-30T15:22:00.514Z,12.04
2019-05-30T15:24:32.440Z,13.71
2019-05-30T15:27:05.871Z,13.67
2019-05-30T15:29:38.105Z,14.67
2019-05-30T15:32:10.322Z,15.10
2019-05-30T15:34:42.279Z,16.87
2019-05-30T15:37:14.855Z,16.14
2019-05-30T15:39:46.716Z,16.42
2019-05-30T15:42:18.969Z,16.50
2019-05-30T15:44:50.771Z,16.88
2019-05-30T15:47:22.573Z,16.64
2019-05-30T15:49:54.359Z,17.48
2019-05-30T15:52:26.211Z,19.28
2019-05-30T15:54:58.048Z,20.09
2019-05-30T15:57:30.049Z,20.73
2019-05-30T16:00:01.892Z,21.04
2019-05-30T16:02:34.410Z,21.65
2019-05-30T16:05:07.495Z,22.23
2019-05-30T16:07:39.539Z,20.82
2019-05-30T16:10:12.828Z,19.93
2019-05-30T16:12:45.356Z,20.14
2019-05-30T16:15:17.752Z,21.89
2019-05-30T16:17:49.614Z,22.02
2019-05-30T16:20:22.053Z,21.29
2019-05-30T16:22:54.103Z,22.58
2019-05-30T16:25:25.949Z,24.66
2019-05-30T16:27:58.142Z,26.12
2019-05-30T16:30:30.118Z,25.40
2019-05-30T16:33:02.153Z,24.58
2019-05-30T16:35:33.993Z,24.64
2019-05-30T16:38:06.088Z,25.66
2019-05-30T16:40:37.856Z,28.46
2019-05-30T16:43:10.056Z,29.54
2019-05-30T16:45:41.856Z,29.92
2019-05-30T16:48:14.318Z,28.91
2019-05-30T16:50:46.489Z,28.66
2019-05-30T16:53:20.023Z,30.09
2019-05-30T16:55:54.176Z,30.70
2019-05-30T16:58:26.707Z,31.02
2019-05-30T17:00:58.525Z,30.46
2019-05-30T17:03:30.458Z,31.26
2019-05-30T17:06:02.264Z,32.13
2019-05-30T17:08:35.946Z,32.50
2019-05-30T17:11:07.831Z,33.43
2019-05-30T17:13:39.705Z,33.29
2019-05-30T17:16:11.494Z,32.32
2019-05-30T17:18:43.320Z,32.61
2019-05-30T17:21:16.384Z,32.51
2019-05-30T17:23:49.492Z,31.58
2019-05-30T17:26:21.349Z,31.52
2019-05-30T17:28:53.667Z,31.73
2019-05-30T17:31:26.148Z,32.23
2019-05-30T17:33:58.396Z,33.22
2019-05-30T17:36:30.247Z,33.52
2019-05-30T17:39:02.142Z,34.86
2019-05-30T17:41:35.710Z,34.96
2019-05-30T17:44:08.017Z,35.09
2019-05-30T17:46:39.971Z,34.22
2019-05-30T17:49:13.260Z,35.23
2019-05-30T17:51:45.098Z,36.63
2019-05-30T17:54:16.891Z,36.51
2019-05-30T17:56:48.693Z,36.26
2019-05-30T17:59:20.547Z,36.49
2019-05-30T18:01:52.422Z,36.29
2019-05-30T18:04:24.573Z,36.35
2019-05-30T18:06:56.461Z,36.50
2019-05-30T18:09:29.126Z,37.05
2019-05-30T18:12:01.218Z,37.35
2019-05-30T18:14:33.504Z,37.86
2019-05-30T18:17:05.340Z,38.41
2019-05-30T18:19:37.311Z,38.56
2019-05-30T18:22:09.125Z,37.97
2019-05-30T18:24:41.026Z,38.11
2019-05-30T18:27:12.883Z,38.41
2019-05-30T18:29:46.206Z,38.95
2019-05-30T18:32:18.092Z,39.54
2019-05-30T18:34:50.135Z,40.18
2019-05-30T18:37:22.283Z,39.13
2019-05-30T18:39:54.647Z,39.79
2019-05-30T18:42:27.327Z,40.92
2019-05-30T18:45:00.511Z,40.75
2019-05-30T18:47:33.158Z,41.12
2019-05-30T18:50:06.016Z,41.62
2019-05-30T18:52:37.924Z,41.55
2019-05-30T18:55:11.402Z,41.21
2019-05-30T18:57:43.382Z,42.54
2019-05-30T19:00:17.656Z,43.97
2019-05-30T19:02:49.795Z,44.83
2019-05-30T19:05:22.205Z,45.51
2019-05-30T19:07:54.207Z,46.19
2019-05-30T19:10:26.231Z,47.32
2019-05-30T19:12:58.028Z,47.91
2019-05-30T19:15:31.499Z,48.71
2019-05-30T19:18:03.411Z,49.14
2019-05-30T19:20:35.845Z,49.94
2019-05-30T19:23:07.751Z,50.52
2019-05-30T19:25:39.843Z,50.95
2019-05-30T19:28:11.765Z,51.31
2019-05-30T19:30:44.299Z,51.87
2019-05-30T19:33:16.032Z,52.22
2019-05-30T19:35:49.758Z,52.44
2019-05-30T19:38:21.676Z,52.67
2019-05-30T19:40:53.809Z,52.80
2019-05-30T19:43:25.560Z,53.50
2019-05-30T19:45:57.609Z,54.10
2019-05-30T19:48:30.277Z,54.64
2019-05-30T19:51:02.349Z,55.08
2019-05-30T19:53:34.943Z,55.32
2019-05-30T19:56:07.716Z,55.60
2019-05-30T19:58:39.941Z,56.02
2019-05-30T20:01:12.251Z,56.13
2019-05-30T20:03:46.997Z,56.12
2019-05-30T20:06:17.595Z,56.37
2019-05-30T20:08:55.364Z,56.76
2019-05-30T20:11:23.290Z,56.90
2019-05-30T20:13:55.195Z,57.04
2019-05-30T20:16:27.327Z,57.03
2019-05-30T20:18:59.162Z,57.34
2019-05-30T20:21:31.745Z,57.49
2019-05-30T20:24:03.669Z,57.58
2019-05-30T20:26:36.633Z,57.83
2019-05-30T20:29:08.642Z,58.05
2019-05-30T20:31:41.499Z,58.22
2019-05-30T20:34:13.425Z,58.59
2019-05-30T20:36:46.968Z,58.97
2019-05-30T20:39:19.566Z,59.43
2019-05-30T20:41:53.945Z,59.65
2019-05-30T20:44:25.153Z,59.70
2019-05-30T20:46:57.438Z,59.88
2019-05-30T20:49:29.278Z,60.03
2019-05-30T20:52:01.371Z,60.02
2019-05-30T20:54:33.340Z,60.04
2019-05-30T20:57:05.328Z,60.24
2019-05-30T20:59:38.318Z,60.47
2019-05-30T21:02:10.714Z,60.65
2019-05-30T21:04:42.975Z,60.75
2019-05-30T21:07:16.349Z,60.64
2019-05-30T21:09:49.476Z,60.88
2019-05-30T21:12:36.940Z,60.89
2019-05-30T21:14:59.469Z,61.33
2019-05-30T21:17:35.784Z,61.77
2019-05-30T21:20:11.404Z,62.02
2019-05-30T21:22:42.405Z,62.27
2019-05-30T21:25:14.815Z,62.46
2019-05-30T21:27:47.301Z,62.70
2019-05-30T21:30:19.673Z,62.94
2019-05-30T21:32:52.524Z,63.12
2019-05-30T21:35:25.366Z,63.40
2019-05-30T21:37:57.699Z,63.55
2019-05-30T21:40:29.789Z,63.62
2019-05-30T21:43:06.701Z,64.13
2019-05-30T21:45:35.199Z,64.19
2019-05-30T21:48:07.813Z,64.23
2019-05-30T21:50:43.045Z,64.41
2019-05-30T21:53:14.507Z,64.52
2019-05-30T21:55:46.323Z,64.65
2019-05-30T21:58:18.330Z,64.83
2019-05-30T22:01:36.156Z,64.96
2019-05-30T22:04:09.153Z,65.28
2019-05-30T22:06:41.271Z,65.30
2019-05-30T22:09:13.675Z,65.32
2019-05-30T22:11:45.675Z,65.35
2019-05-30T22:14:17.840Z,65.09
2019-05-30T22:16:50.325Z,64.92
2019-05-30T22:19:22.710Z,64.68
2019-05-30T22:21:54.601Z,65.74
2019-05-30T22:24:26.712Z,65.89
2019-05-30T22:26:58.484Z,66.12
2019-05-30T22:29:30.343Z,65.97
2019-05-30T22:32:02.150Z,65.90
2019-05-30T22:34:34.557Z,66.12
2019-05-30T22:37:06.309Z,66.48
2019-05-30T22:39:38.277Z,66.55
2019-05-30T22:42:10.083Z,66.67
2019-05-30T22:44:42.110Z,66.77
2019-05-30T22:47:13.882Z,66.82
2019-05-30T22:49:46.677Z,66.85
2019-05-30T22:52:18.700Z,66.86
2019-05-30T22:54:51.233Z,66.89
2019-05-30T22:57:23.120Z,66.85
2019-05-30T22:59:55.424Z,66.98
2019-05-30T23:02:27.180Z,66.78
2019-05-30T23:04:59.280Z,66.85
2019-05-30T23:07:31.189Z,66.70
2019-05-30T23:10:03.107Z,67.07
2019-05-30T23:12:34.912Z,67.22
2019-05-30T23:15:07.864Z,67.16
2019-05-30T23:17:39.628Z,67.24
2019-05-30T23:20:12.082Z,67.48
2019-05-30T23:22:43.867Z,67.49
2019-05-30T23:25:17.928Z,67.58
2019-05-30T23:27:50.167Z,67.49
2019-05-30T23:30:22.527Z,67.29
2019-05-30T23:32:54.420Z,67.24
2019-05-30T23:35:26.501Z,67.10
2019-05-30T23:37:58.860Z,67.48
2019-05-30T23:40:30.802Z,67.71
2019-05-30T23:43:02.559Z,67.58
2019-05-30T23:45:34.784Z,67.77
2019-05-30T23:48:07.491Z,67.84
2019-05-30T23:50:39.723Z,67.92
2019-05-30T23:53:11.460Z,68.05
2019-05-30T23:55:43.547Z,68.21
2019-05-30T23:58:15.300Z,68.26
